Time;durP1;ratioP1;P1;durP2;ratioP2;P2;SDS_P1;SDS_P2;PMS_P1;PMS_P2;Temp;Humidity;BMP_temperature;BMP_pressure;BME280_temperature;BME280_humidity;BME280_pressure;Samples;Min_cycle;Max_cycle;Signal;HPM_P1;HPM_P2
2023/04/20 00:00:28;;;;;;;14.30;8.35;;;;;;;11.06;58.43;99704.78;7718196;32;37060;-78
2023/04/20 00:04:45;;;;;;;13.70;8.73;;;;;;;10.81;59.36;99700.19;7732160;32;40142;-78
2023/04/20 00:09:03;;;;;;;15.65;8.32;;;;;;;11.00;58.83;99699.62;7727959;32;40888;-76
2023/04/20 00:13:19;;;;;;;13.93;8.88;;;;;;;10.93;58.74;99696.34;7735413;32;37933;-76
2023/04/20 00:17:38;;;;;;;15.05;8.35;;;;;;;10.86;59.19;99697.44;7717595;32;37995;-78
2023/04/20 00:21:54;;;;;;;16.35;8.57;;;;;;;10.90;58.96;99692.28;7738237;32;39393;-78
2023/04/20 00:26:10;;;;;;;13.38;8.63;;;;;;;10.87;58.85;99693.63;7737904;32;40051;-79
2023/04/20 00:30:27;;;;;;;14.75;8.90;;;;;;;10.85;58.90;99695.84;7733754;32;37762;-78
2023/04/20 00:34:43;;;;;;;14.07;8.57;;;;;;;10.88;58.36;99689.84;7737366;32;36787;-78
2023/04/20 00:39:00;;;;;;;15.40;9.05;;;;;;;10.80;58.17;99693.12;7737354;32;40319;-78
2023/04/20 00:43:16;;;;;;;14.87;8.90;;;;;;;10.75;58.07;99698.56;7729256;32;40937;-78
2023/04/20 00:47:32;;;;;;;13.82;8.68;;;;;;;10.83;57.80;99692.56;7711046;32;38784;-78
2023/04/20 00:51:49;;;;;;;16.48;9.18;;;;;;;10.62;58.12;99691.75;7710688;32;37313;-78
2023/04/20 00:56:06;;;;;;;15.27;9.02;;;;;;;10.69;57.88;99692.31;7718481;32;40165;-78
2023/04/20 01:00:22;;;;;;;14.98;9.52;;;;;;;10.64;58.11;99688.75;7724433;32;40870;-78
2023/04/20 01:04:38;;;;;;;15.18;9.30;;;;;;;10.66;57.98;99692.88;7728087;32;37986;-78
2023/04/20 01:08:55;;;;;;;16.37;9.93;;;;;;;10.65;57.60;99702.13;7735976;32;36964;-78
2023/04/20 01:13:11;;;;;;;16.27;9.50;;;;;;;10.59;57.71;99700.50;7727508;32;39144;-80
2023/04/20 01:17:27;;;;;;;15.02;8.90;;;;;;;10.69;57.13;99686.88;7715838;32;39987;-78
2023/04/20 01:21:44;;;;;;;15.27;9.75;;;;;;;10.73;58.83;99692.59;7710342;32;38795;-78
2023/04/20 01:26:04;;;;;;;15.00;9.43;;;;;;;10.60;58.08;99687.69;7711003;32;37312;-76
2023/04/20 01:30:21;;;;;;;14.85;8.95;;;;;;;10.43;58.40;99696.97;7711169;32;39444;-76
2023/04/20 01:34:37;;;;;;;17.45;10.10;;;;;;;10.56;58.19;99694.78;7710114;32;40551;-76
2023/04/20 01:38:54;;;;;;;15.55;9.88;;;;;;;10.66;57.92;99689.34;7712271;32;38062;-76
2023/04/20 01:43:10;;;;;;;16.20;10.00;;;;;;;10.52;58.57;99692.59;7729003;32;37653;-77
2023/04/20 01:47:26;;;;;;;17.23;10.18;;;;;;;10.49;58.81;99687.69;7722150;32;40102;-76
2023/04/20 01:51:43;;;;;;;19.62;10.27;;;;;;;10.38;59.31;99688.78;7709567;32;40018;-76
2023/04/20 01:55:59;;;;;;;16.35;10.13;;;;;;;10.41;59.36;99684.72;7722800;32;37740;-76
2023/04/20 02:00:16;;;;;;;15.98;9.50;;;;;;;10.42;59.30;99689.09;7734199;32;37287;-76
2023/04/20 02:04:32;;;;;;;18.27;10.63;;;;;;;10.34;59.40;99683.06;7736138;32;39292;-76
2023/04/20 02:08:48;;;;;;;18.00;10.57;;;;;;;10.42;59.14;99680.91;7734670;32;40714;-76
2023/04/20 02:13:04;;;;;;;18.27;10.77;;;;;;;10.53;58.63;99679.78;7729284;32;38806;-76
2023/04/20 02:17:21;;;;;;;17.80;11.00;;;;;;;10.39;58.74;99679.53;7727146;32;37644;-76
2023/04/20 02:21:37;;;;;;;16.48;9.48;;;;;;;10.32;58.66;99687.16;7701305;32;39327;-76
2023/04/20 02:25:53;;;;;;;18.08;10.65;;;;;;;10.09;59.10;99696.63;7709086;32;40099;-76
2023/04/20 02:30:11;;;;;;;16.10;10.05;;;;;;;10.47;57.72;99689.06;7709685;32;37847;-76
2023/04/20 02:34:27;;;;;;;17.55;9.93;;;;;;;10.23;58.02;99686.06;7709754;32;37901;-76
2023/04/20 02:38:43;;;;;;;16.15;10.38;;;;;;;10.04;58.36;99696.66;7708748;32;40154;-76
2023/04/20 02:43:00;;;;;;;17.02;10.27;;;;;;;10.04;58.11;99689.31;7714397;32;41086;-76
2023/04/20 02:47:16;;;;;;;19.17;10.50;;;;;;;10.05;57.88;99687.38;7734763;32;38128;-76
2023/04/20 02:51:32;;;;;;;17.73;9.98;;;;;;;9.95;58.03;99689.00;7730872;32;37381;-76
2023/04/20 02:55:49;;;;;;;19.60;10.70;;;;;;;9.88;58.07;99687.63;7712184;32;40038;-76
2023/04/20 03:00:07;;;;;;;16.83;10.10;;;;;;;9.89;57.91;99683.81;7712013;32;40840;-76
2023/04/20 03:04:25;;;;;;;17.15;9.95;;;;;;;9.85;57.71;99686.28;7715162;32;36852;-76
2023/04/20 03:08:41;;;;;;;16.60;10.57;;;;;;;10.06;57.27;99700.72;7723442;32;37195;-76
2023/04/20 03:12:57;;;;;;;18.10;10.43;;;;;;;9.90;57.48;99693.63;7732855;32;39598;-76
2023/04/20 03:17:14;;;;;;;18.60;10.63;;;;;;;9.93;57.69;99695.81;7721071;32;39905;-77
2023/04/20 03:21:31;;;;;;;16.70;10.38;;;;;;;9.94;57.83;99697.44;7728971;32;37831;-76
2023/04/20 03:25:48;;;;;;;20.50;10.65;;;;;;;10.04;57.08;99699.38;7723253;32;37925;-76
2023/04/20 03:30:05;;;;;;;14.43;9.07;;;;;;;9.77;57.84;99701.22;7730214;32;39520;-76
2023/04/20 03:34:22;;;;;;;16.83;10.32;;;;;;;9.90;57.45;99690.88;7711709;32;40037;-76
2023/04/20 03:38:38;;;;;;;16.48;10.30;;;;;;;9.84;57.83;99702.88;7711680;32;37786;-76
2023/04/20 03:42:54;;;;;;;16.58;9.70;;;;;;;9.85;58.16;99708.06;7716339;32;37289;-76
2023/04/20 03:47:11;;;;;;;16.05;10.00;;;;;;;9.78;58.47;99708.31;7738296;32;40110;-76
2023/04/20 03:51:27;;;;;;;17.80;9.65;;;;;;;9.59;58.84;99718.06;7735583;32;41089;-75
2023/04/20 03:55:44;;;;;;;15.20;9.38;;;;;;;9.30;59.78;99726.66;7714150;32;37881;-76
2023/04/20 04:00:00;;;;;;;15.50;9.70;;;;;;;9.59;59.19;99728.94;7721275;32;38011;-76
2023/04/20 04:04:16;;;;;;;17.70;9.70;;;;;;;9.58;59.31;99727.31;7732863;32;40343;-76
2023/04/20 04:08:34;;;;;;;17.52;10.35;;;;;;;9.28;59.90;99728.81;7722903;32;40883;-77
2023/04/20 04:12:50;;;;;;;18.25;10.85;;;;;;;9.63;58.76;99729.22;7733528;32;38593;-77
2023/04/20 04:17:06;;;;;;;20.62;12.05;;;;;;;9.33;59.72;99726.13;7711224;32;37372;-78
2023/04/20 04:21:23;;;;;;;20.77;12.35;;;;;;;9.45;59.71;99727.78;7711863;32;39907;-78
2023/04/20 04:25:39;;;;;;;21.30;11.82;;;;;;;9.39;59.97;99730.47;7722312;32;39830;-78
2023/04/20 04:29:55;;;;;;;21.30;11.93;;;;;;;9.46;59.80;99724.81;7728371;32;38078;-78
2023/04/20 04:34:12;;;;;;;20.67;11.68;;;;;;;9.60;59.57;99730.56;7710950;32;37910;-78
2023/04/20 04:38:28;;;;;;;21.60;11.85;;;;;;;9.70;59.35;99727.06;7726579;32;40113;-78
2023/04/20 04:42:46;;;;;;;20.52;11.90;;;;;;;9.77;59.30;99723.00;7723289;32;40842;-77
2023/04/20 04:47:04;;;;;;;22.60;11.68;;;;;;;9.76;59.61;99729.53;7737096;32;37910;-76
2023/04/20 04:51:20;;;;;;;22.25;11.07;;;;;;;9.92;59.30;99729.59;7718106;32;37396;-76
2023/04/20 04:55:36;;;;;;;21.90;11.95;;;;;;;9.91;59.74;99730.66;7722694;32;40131;-78
2023/04/20 04:59:53;;;;;;;20.75;12.77;;;;;;;9.93;60.41;99728.47;7716409;32;41258;-78
2023/04/20 05:04:09;;;;;;;22.37;12.65;;;;;;;10.05;60.27;99737.22;7710588;32;37635;-79
2023/04/20 05:08:26;;;;;;;24.52;13.00;;;;;;;9.96;60.84;99727.94;7711844;32;37325;-79
2023/04/20 05:12:43;;;;;;;20.80;12.37;;;;;;;9.85;61.50;99738.00;7737015;32;40108;-85
2023/04/20 05:17:00;;;;;;;19.95;12.10;;;;;;;9.86;61.31;99733.38;7699886;32;38593;-82
2023/04/20 05:21:16;;;;;;;20.42;12.93;;;;;;;9.97;60.91;99735.03;7711860;32;37878;-81
2023/04/20 05:25:32;;;;;;;23.45;12.25;;;;;;;10.20;60.64;99732.91;7711574;32;38215;-83
2023/04/20 05:29:49;;;;;;;26.85;13.10;;;;;;;10.36;60.20;99737.28;7696863;32;39251;-82
2023/04/20 05:34:05;;;;;;;21.33;12.70;;;;;;;10.43;59.86;99743.28;7710296;32;39595;-83
2023/04/20 05:38:21;;;;;;;22.62;13.10;;;;;;;10.63;59.11;99741.66;7710309;32;38127;-83
2023/04/20 05:42:38;;;;;;;24.55;13.55;;;;;;;10.70;58.41;99743.03;7731123;32;37328;-82
2023/04/20 05:46:54;;;;;;;22.77;12.90;;;;;;;10.64;58.11;99743.28;7716136;32;39644;-82
2023/04/20 05:51:10;;;;;;;23.67;12.50;;;;;;;10.94;57.94;99747.09;7735684;32;40823;-82
2023/04/20 05:55:27;;;;;;;21.08;12.73;;;;;;;11.24;57.46;99752.47;7734295;32;38521;-83
2023/04/20 05:59:44;;;;;;;19.48;12.65;;;;;;;11.48;56.87;99757.31;7736343;32;36892;-83
2023/04/20 06:04:00;;;;;;;22.15;12.63;;;;;;;11.63;56.69;99757.25;7712676;32;39470;-83
2023/04/20 06:08:18;;;;;;;21.33;12.68;;;;;;;11.92;56.33;99759.34;7695387;32;39900;-83
2023/04/20 06:12:34;;;;;;;23.83;13.02;;;;;;;12.03;56.04;99751.91;7708873;32;37927;-84
2023/04/20 06:16:51;;;;;;;19.90;12.30;;;;;;;11.59;56.11;99761.66;7735446;32;37174;-82
2023/04/20 06:21:10;;;;;;;21.00;12.43;;;;;;;11.17;58.13;99765.59;7735607;32;39041;-83
2023/04/20 06:25:26;;;;;;;21.25;12.43;;;;;;;11.78;57.46;99763.75;7714122;32;40163;-83
2023/04/20 06:29:42;;;;;;;22.67;12.85;;;;;;;12.09;56.57;99752.69;7732825;32;38756;-83
2023/04/20 06:33:59;;;;;;;24.80;12.65;;;;;;;11.50;58.30;99760.56;7731181;32;37085;-83
2023/04/20 06:38:15;;;;;;;21.95;12.77;;;;;;;11.74;58.00;99762.69;7711825;32;39910;-84
2023/04/20 06:42:31;;;;;;;20.25;12.18;;;;;;;12.06;57.51;99756.81;7711797;32;40664;-84
2023/04/20 06:46:47;;;;;;;23.62;13.48;;;;;;;12.05;57.30;99757.09;7737833;32;38747;-84
2023/04/20 06:51:04;;;;;;;22.80;13.20;;;;;;;12.02;57.68;99766.66;7728087;32;37308;-83
2023/04/20 06:55:20;;;;;;;22.77;13.07;;;;;;;11.73;58.01;99764.59;7712380;32;38871;-83
2023/04/20 06:59:36;;;;;;;22.67;12.23;;;;;;;12.03;57.29;99757.37;7726056;32;40971;-83
2023/04/20 07:03:52;;;;;;;21.87;12.73;;;;;;;12.05;57.15;99757.09;7698339;32;38043;-83
2023/04/20 07:08:09;;;;;;;23.15;13.05;;;;;;;12.54;55.87;99762.50;7701227;32;37906;-82
2023/04/20 07:12:26;;;;;;;19.33;11.05;;;;;;;12.75;55.43;99752.19;7719818;32;40126;-85
2023/04/20 07:16:42;;;;;;;17.60;10.30;;;;;;;12.99;54.74;99756.06;7737045;32;41042;-83
2023/04/20 07:20:59;;;;;;;18.42;10.95;;;;;;;13.24;53.62;99764.03;7719610;32;38112;-83
2023/04/20 07:25:16;;;;;;;22.10;12.05;;;;;;;12.86;53.80;99763.03;7712159;32;37107;-82
2023/04/20 07:29:32;;;;;;;17.27;10.73;;;;;;;13.21;53.73;99770.09;7698329;32;39396;-80
2023/04/20 07:33:49;;;;;;;19.70;10.85;;;;;;;13.14;54.32;99764.97;7719104;32;39668;-86
2023/04/20 07:38:05;;;;;;;18.50;11.60;;;;;;;13.86;53.98;99763.34;7712127;32;38110;-67
2023/04/20 07:42:22;;;;;;;16.80;10.82;;;;;;;14.27;51.29;99757.28;7711631;32;38013;-69
2023/04/20 07:46:38;;;;;;;17.37;10.43;;;;;;;14.35;51.38;99762.09;7720721;32;39298;-81
2023/04/20 07:50:55;;;;;;;16.58;9.63;;;;;;;14.70;50.45;99761.88;7738674;32;41225;-80
2023/04/20 07:55:13;;;;;;;15.75;8.00;;;;;;;14.69;50.42;99763.78;7738544;32;37672;-80
2023/04/20 07:59:29;;;;;;;15.02;8.45;;;;;;;14.93;49.34;99757.34;7738435;32;36932;-81
2023/04/20 08:03:45;;;;;;;12.77;6.72;;;;;;;15.33;48.97;99761.28;7736716;32;40238;-80
2023/04/20 08:08:02;;;;;;;17.25;7.40;;;;;;;15.83;47.27;99757.00;7738274;32;39953;-81
2023/04/20 08:12:18;;;;;;;9.98;5.75;;;;;;;16.43;46.24;99750.44;7731178;32;38739;-81
2023/04/20 08:16:35;;;;;;;7.82;4.70;;;;;;;16.58;42.79;99744.56;7711553;32;37194;-81
2023/04/20 08:20:51;;;;;;;12.52;4.40;;;;;;;16.95;42.42;99747.25;7711517;32;39487;-81
2023/04/20 08:25:07;;;;;;;13.27;4.78;;;;;;;17.43;40.60;99749.25;7711290;32;40017;-80
2023/04/20 08:29:24;;;;;;;7.15;4.47;;;;;;;17.92;40.21;99730.75;7711185;32;38680;-81
2023/04/20 08:33:41;;;;;;;8.18;3.85;;;;;;;18.35;38.17;99737.41;7711362;32;37218;-81
2023/04/20 08:37:57;;;;;;;22.45;5.70;;;;;;;18.35;37.04;99738.25;7711249;32;39041;-80
2023/04/20 08:42:15;;;;;;;11.93;4.32;;;;;;;18.33;36.76;99737.75;7722874;32;40034;-80
2023/04/20 08:46:32;;;;;;;8.57;3.90;;;;;;;18.63;36.52;99720.53;7738012;32;38153;-80
2023/04/20 08:50:50;;;;;;;11.48;4.00;;;;;;;19.25;35.63;99735.81;7722717;32;37118;-80
2023/04/20 08:55:07;;;;;;;6.57;3.78;;;;;;;19.25;34.28;99727.53;7737803;32;39311;-80
2023/04/20 08:59:23;;;;;;;6.50;3.72;;;;;;;19.37;33.75;99729.56;7732746;32;40532;-82
2023/04/20 09:03:43;;;;;;;9.75;4.05;;;;;;;19.48;32.16;99722.53;7718331;32;39526;-81
2023/04/20 09:08:01;;;;;;;7.62;3.50;;;;;;;19.54;32.04;99728.66;7718240;32;36977;-81
2023/04/20 09:12:17;;;;;;;7.35;3.55;;;;;;;19.67;32.83;99727.63;7706474;32;39049;-80
2023/04/20 09:16:33;;;;;;;6.57;3.72;;;;;;;19.76;32.24;99722.88;7711973;32;39608;-80
2023/04/20 09:20:50;;;;;;;4.72;3.17;;;;;;;20.00;32.35;99716.69;7711379;32;38038;-80
2023/04/20 09:25:16;;;;;;;10.40;3.83;;;;;;;20.15;31.37;99722.78;7719406;32;37025;-81
2023/04/20 09:29:32;;;;;;;5.90;3.08;;;;;;;20.73;30.85;99720.16;7725263;32;39550;-81
2023/04/20 09:34:01;;;;;;;5.80;3.62;;;;;;;20.75;28.78;99707.59;7737882;32;39658;-81
2023/04/20 09:38:24;;;;;;;5.68;3.03;;;;;;;20.52;28.94;99718.19;7737731;32;38716;-82
2023/04/20 09:42:41;;;;;;;;;;;;;;;20.16;30.47;99710.53;7725082;32;37131;-82
2023/04/20 09:46:58;;;;;;;6.43;3.40;;;;;;;20.39;30.51;99709.06;7722924;32;39746;-81
2023/04/20 09:51:14;;;;;;;5.20;3.42;;;;;;;20.36;31.05;99711.69;7696813;32;39851;-82
2023/04/20 09:55:31;;;;;;;4.35;3.22;;;;;;;20.29;31.44;99725.28;7710593;32;37526;-82
2023/04/20 09:59:50;;;;;;;7.97;3.60;;;;;;;20.77;29.28;99705.28;7710024;32;37155;-81
2023/04/20 10:04:09;;;;;;;7.00;3.35;;;;;;;21.32;31.54;99705.94;7697463;32;39385;-79
2023/04/20 10:08:26;;;;;;;7.15;3.55;;;;;;;20.97;28.69;99705.53;7696995;32;39842;-83
2023/04/20 10:12:51;;;;;;;7.12;3.67;;;;;;;21.10;30.13;99685.00;7696546;32;37875;-80
2023/04/20 10:17:08;;;;;;;5.15;3.20;;;;;;;21.29;29.37;99690.00;7710413;32;36086;-80
2023/04/20 10:21:24;;;;;;;5.22;3.22;;;;;;;22.28;29.91;99684.31;7710052;32;40154;-81
2023/04/20 10:25:41;;;;;;;7.93;3.33;;;;;;;22.47;30.04;99690.03;7710017;32;40755;-80
2023/04/20 10:30:09;;;;;;;6.37;3.47;;;;;;;22.37;29.03;99682.19;7709845;32;38064;-80
2023/04/20 10:34:30;;;;;;;6.32;3.37;;;;;;;21.80;28.54;99688.81;7711539;32;37304;-81
2023/04/20 10:38:46;;;;;;;7.97;3.42;;;;;;;20.86;29.81;99674.72;7736527;32;40077;-82
2023/04/20 10:43:03;;;;;;;7.82;3.90;;;;;;;20.50;31.02;99690.03;7730554;32;40113;-82
2023/04/20 10:47:33;;;;;;;8.70;3.97;;;;;;;20.46;30.68;99680.81;7709460;32;38465;-82
2023/04/20 10:51:50;;;;;;;4.70;3.28;;;;;;;20.59;30.42;99676.09;7709282;32;37106;-82
2023/04/20 10:56:07;;;;;;;6.00;3.67;;;;;;;21.20;29.31;99669.91;7709423;32;39278;-81
2023/04/20 11:00:27;;;;;;;8.00;3.80;;;;;;;21.56;30.21;99673.84;7729519;32;40481;-81
2023/04/20 11:04:43;;;;;;;8.77;3.90;;;;;;;20.79;30.57;99666.97;7735904;32;36900;-81
2023/04/20 11:08:59;;;;;;;7.50;4.22;;;;;;;20.94;30.21;99665.50;7735795;32;36751;-81
2023/04/20 11:13:27;;;;;;;9.32;3.97;;;;;;;20.36;32.68;99662.66;7736908;32;39464;-81
2023/04/20 11:17:45;;;;;;;6.65;3.80;;;;;;;20.20;32.28;99659.72;7739625;32;39898;-81
2023/04/20 11:22:03;;;;;;;9.15;4.47;;;;;;;19.22;33.46;99664.63;7717431;32;38010;-82
2023/04/20 11:26:19;;;;;;;8.32;4.82;;;;;;;20.51;32.18;99652.91;7739509;32;37598;-81
2023/04/20 11:30:42;;;;;;;10.05;4.32;;;;;;;21.16;30.97;99646.78;7739361;32;39397;-81
2023/04/20 11:35:06;;;;;;;5.95;4.10;;;;;;;21.43;31.01;99642.50;7739286;32;40836;-80
2023/04/20 11:39:28;;;;;;;16.52;4.55;;;;;;;20.63;32.35;99633.59;7712725;32;37611;-80
2023/04/20 11:43:45;;;;;;;9.68;5.85;;;;;;;20.55;31.63;99651.06;7698703;32;37223;-80
2023/04/20 11:48:02;;;;;;;7.20;4.68;;;;;;;20.01;32.79;99651.13;7712310;32;38833;-80
2023/04/20 11:52:18;;;;;;;6.20;4.12;;;;;;;19.88;34.17;99653.78;7712060;32;39979;-79
2023/04/20 11:56:36;;;;;;;9.07;4.85;;;;;;;20.54;34.40;99652.22;7714444;32;37736;-80
2023/04/20 12:00:52;;;;;;;9.85;5.18;;;;;;;21.37;31.40;99644.72;7711359;32;37854;-80
2023/04/20 12:05:10;;;;;;;9.93;5.93;;;;;;;21.27;30.29;99647.16;7719233;32;39251;-80
2023/04/20 12:09:26;;;;;;;66.35;42.95;;;;;;;21.54;31.15;99637.31;7723075;32;40887;-82
2023/04/20 12:13:43;;;;;;;11.23;3.80;;;;;;;21.38;32.10;99634.41;7727316;32;38597;-79
2023/04/20 12:17:59;;;;;;;5.43;3.58;;;;;;;22.60;30.29;99624.09;7720863;32;37194;-80
2023/04/20 12:22:15;;;;;;;8.30;3.85;;;;;;;22.13;28.79;99624.78;7711864;32;40136;-79
2023/04/20 12:26:34;;;;;;;6.68;3.90;;;;;;;22.03;28.72;99619.72;7710812;32;39985;-81
2023/04/20 12:30:54;;;;;;;7.40;3.53;;;;;;;22.67;28.75;99620.69;7711778;32;38738;-81
2023/04/20 12:35:10;;;;;;;7.37;3.97;;;;;;;21.98;29.03;99618.00;7711443;32;37072;-82
2023/04/20 12:39:26;;;;;;;7.53;3.28;;;;;;;22.10;28.53;99614.38;7711800;32;39488;-81
2023/04/20 12:43:45;;;;;;;10.93;3.50;;;;;;;23.21;28.38;99602.56;7710956;32;40822;-81
2023/04/20 12:48:02;;;;;;;5.35;3.00;;;;;;;23.28;27.17;99601.94;7697792;32;38156;-70
2023/04/20 12:52:18;;;;;;;7.90;3.25;;;;;;;23.29;26.50;99606.34;7711440;32;37067;-80
2023/04/20 12:56:36;;;;;;;5.87;3.35;;;;;;;23.06;27.16;99609.78;7711629;32;40089;-79
2023/04/20 13:00:52;;;;;;;5.18;3.28;;;;;;;22.69;28.75;99621.13;7711482;32;39952;-79
2023/04/20 13:05:10;;;;;;;9.20;3.37;;;;;;;22.40;27.83;99617.59;7711473;32;38789;-79
2023/04/20 13:09:26;;;;;;;7.37;3.10;;;;;;;22.21;27.62;99604.34;7711455;32;37048;-80
2023/04/20 13:13:42;;;;;;;8.73;3.78;;;;;;;22.26;28.50;99606.88;7699730;32;39367;-80
2023/04/20 13:17:59;;;;;;;7.18;3.28;;;;;;;22.36;29.80;99602.81;7711299;32;41300;-80
2023/04/20 13:22:16;;;;;;;11.18;3.28;;;;;;;22.34;29.11;99596.81;7716648;32;38555;-80
2023/04/20 13:26:34;;;;;;;5.82;3.30;;;;;;;22.55;28.40;99585.47;7718566;32;37293;-80
2023/04/20 13:30:52;;;;;;;12.73;3.70;;;;;;;22.77;27.64;99592.38;7725981;32;39223;-80
2023/04/20 13:35:11;;;;;;;4.85;3.20;;;;;;;23.14;27.57;99580.97;7721459;32;39955;-80
2023/04/20 13:39:28;;;;;;;5.37;2.70;;;;;;;23.27;26.19;99586.41;7714409;32;36966;-80
2023/04/20 13:43:44;;;;;;;4.95;2.58;;;;;;;22.62;27.46;99577.31;7703383;32;37776;-81
2023/04/20 13:48:00;;;;;;;6.90;3.00;;;;;;;22.58;24.98;99579.19;7728019;32;39482;-81
2023/04/20 13:52:17;;;;;;;6.05;3.40;;;;;;;23.52;25.71;99570.28;7736733;32;41573;-67
2023/04/20 13:56:33;;;;;;;4.05;2.72;;;;;;;23.66;26.06;99564.22;7736809;32;37584;-81
2023/04/20 14:00:50;;;;;;;15.77;3.92;;;;;;;23.67;25.87;99560.28;7722128;32;37235;-81
2023/04/20 14:05:07;;;;;;;5.90;3.12;;;;;;;23.10;26.82;99566.19;7727926;32;39329;-81
2023/04/20 14:09:23;;;;;;;6.10;3.28;;;;;;;22.87;26.97;99564.03;7736853;32;40025;-80
2023/04/20 14:13:40;;;;;;;4.87;2.85;;;;;;;23.25;27.58;99568.13;7736810;32;37981;-80
2023/04/20 14:17:56;;;;;;;4.97;2.53;;;;;;;23.77;27.63;99562.47;7736311;32;37235;-80
2023/04/20 14:22:13;;;;;;;4.85;2.60;;;;;;;24.36;25.96;99547.28;7709875;32;40099;-78
2023/04/20 14:26:29;;;;;;;5.07;2.97;;;;;;;23.95;25.60;99554.50;7709541;32;39703;-80
2023/04/20 14:30:45;;;;;;;22.08;3.05;;;;;;;23.78;26.43;99544.56;7709566;32;37925;-80
2023/04/20 14:35:03;;;;;;;6.32;3.33;;;;;;;23.13;28.53;99553.50;7695744;32;37772;-81
2023/04/20 14:39:22;;;;;;;6.22;2.72;;;;;;;23.59;27.62;99549.00;7709216;32;39762;-81
2023/04/20 14:43:38;;;;;;;4.35;2.85;;;;;;;24.47;27.12;99538.31;7709376;32;40728;-80
2023/04/20 14:47:55;;;;;;;3.53;2.47;;;;;;;24.47;25.92;99530.75;7710542;32;38601;-80
2023/04/20 14:52:12;;;;;;;7.62;3.00;;;;;;;24.56;24.86;99536.13;7724876;32;37915;-81
2023/04/20 14:56:28;;;;;;;5.40;2.90;;;;;;;24.93;23.68;99529.94;7739709;32;39270;-81
2023/04/20 15:00:45;;;;;;;5.53;3.03;;;;;;;24.92;25.06;99528.31;7737639;32;39998;-81
2023/04/20 15:05:01;;;;;;;4.18;2.80;;;;;;;24.83;24.80;99523.00;7729175;32;37597;-81
2023/04/20 15:09:21;;;;;;;6.43;3.03;;;;;;;24.63;24.83;99527.87;7739364;32;38538;-81
2023/04/20 15:13:39;;;;;;;5.60;3.37;;;;;;;24.91;24.98;99518.38;7717799;32;38977;-81
2023/04/20 15:17:56;;;;;;;5.43;3.10;;;;;;;24.42;25.36;99527.50;7712225;32;40765;-82
2023/04/20 15:22:12;;;;;;;6.35;3.47;;;;;;;23.62;25.64;99522.41;7712226;32;38747;-81
2023/04/20 15:26:28;;;;;;;5.40;3.08;;;;;;;23.34;26.88;99525.41;7712461;32;37862;-81
2023/04/20 15:30:45;;;;;;;4.55;3.15;;;;;;;23.39;26.88;99528.69;7733268;32;40710;-81
2023/04/20 15:35:01;;;;;;;5.60;3.25;;;;;;;23.49;26.87;99530.09;7738713;32;40070;-80
2023/04/20 15:39:18;;;;;;;7.00;3.67;;;;;;;23.77;26.84;99526.28;7738849;32;38749;-84
2023/04/20 15:43:34;;;;;;;6.57;2.50;;;;;;;24.03;25.82;99527.59;7738812;32;37013;-80
2023/04/20 15:47:50;;;;;;;4.45;2.85;;;;;;;23.15;26.43;99524.19;7733570;32;40166;-79
2023/04/20 15:52:07;;;;;;;4.90;2.70;;;;;;;23.29;27.34;99525.69;7719942;32;39947;-80
2023/04/20 15:56:23;;;;;;;6.68;3.50;;;;;;;22.95;26.91;99528.87;7725323;32;37979;-79
2023/04/20 16:00:40;;;;;;;5.25;3.10;;;;;;;22.63;28.58;99528.91;7720075;32;37064;-80
2023/04/20 16:04:56;;;;;;;7.75;3.20;;;;;;;22.18;29.05;99529.31;7731776;32;39393;-80
2023/04/20 16:09:13;;;;;;;6.35;2.95;;;;;;;22.58;28.96;99533.94;7738419;32;40563;-80
2023/04/20 16:13:29;;;;;;;4.35;2.87;;;;;;;22.81;29.35;99534.91;7738445;32;38091;-79
2023/04/20 16:17:46;;;;;;;5.50;2.90;;;;;;;22.73;30.68;99535.87;7738626;32;37218;-80
2023/04/20 16:22:02;;;;;;;5.55;3.12;;;;;;;22.54;30.09;99533.03;7737974;32;39352;-80
2023/04/20 16:26:19;;;;;;;4.35;2.45;;;;;;;22.70;30.57;99553.28;7738523;32;41403;-79
2023/04/20 16:30:36;;;;;;;5.90;3.12;;;;;;;22.11;29.14;99555.72;7716351;32;37894;-79
2023/04/20 16:34:52;;;;;;;4.45;2.83;;;;;;;21.75;30.50;99565.84;7711447;32;36994;-80
2023/04/20 16:39:09;;;;;;;3.72;2.25;;;;;;;21.42;30.73;99568.81;7711841;32;40103;-79
2023/04/20 16:43:25;;;;;;;4.80;2.53;;;;;;;21.16;31.49;99569.16;7710978;32;39757;-80
2023/04/20 16:47:41;;;;;;;5.18;2.62;;;;;;;20.67;33.46;99577.50;7711339;32;38756;-79
2023/04/20 16:51:58;;;;;;;7.70;2.65;;;;;;;20.84;33.39;99574.50;7710945;32;37038;-78
2023/04/20 16:56:15;;;;;;;4.90;2.60;;;;;;;20.54;34.06;99583.00;7711360;32;39204;-80
2023/04/20 17:00:32;;;;;;;5.22;2.72;;;;;;;19.92;35.68;99589.50;7711172;32;39610;-79
2023/04/20 17:04:49;;;;;;;3.22;2.30;;;;;;;19.73;36.33;99588.03;7710567;32;38732;-79
2023/04/20 17:09:05;;;;;;;3.45;2.10;;;;;;;19.27;36.58;99598.91;7738109;32;36763;-79
2023/04/20 17:13:22;;;;;;;2.72;2.15;;;;;;;19.55;36.43;99600.34;7736819;32;39311;-79
2023/04/20 17:17:38;;;;;;;4.35;2.08;;;;;;;19.70;36.07;99596.97;7722462;32;40085;-79
2023/04/20 17:21:56;;;;;;;2.92;2.03;;;;;;;19.67;35.69;99600.41;7710576;32;39204;-79
2023/04/20 17:26:12;;;;;;;7.97;2.10;;;;;;;19.58;35.98;99597.72;7717012;32;37177;-80
2023/04/20 17:30:29;;;;;;;3.25;1.92;;;;;;;19.41;36.63;99606.94;7738085;32;40177;-78
2023/04/20 17:34:47;;;;;;;6.85;2.37;;;;;;;19.40;36.65;99601.75;7737116;32;39681;-78
2023/04/20 17:39:03;;;;;;;3.45;2.05;;;;;;;19.08;36.88;99604.87;7726240;32;40393;-78
2023/04/20 17:43:20;;;;;;;3.85;2.25;;;;;;;19.00;37.12;99611.25;7710061;32;37037;-78
2023/04/20 17:47:36;;;;;;;5.90;2.00;;;;;;;19.00;37.40;99619.53;7710414;32;39386;-78
2023/04/20 17:51:53;;;;;;;2.97;1.92;;;;;;;18.89;37.61;99621.88;7710223;32;40030;-78
2023/04/20 17:56:10;;;;;;;3.35;2.15;;;;;;;18.89;37.62;99619.09;7709360;32;37822;-81
2023/04/20 18:00:26;;;;;;;9.38;5.75;;;;;;;18.80;38.08;99629.34;7710682;32;37796;-82
2023/04/20 18:04:42;;;;;;;8.25;3.70;;;;;;;18.86;39.40;99636.31;7696801;32;40073;-81
2023/04/20 18:09:00;;;;;;;17.15;2.90;;;;;;;18.98;37.97;99632.88;7710721;32;39610;-83
2023/04/20 18:13:16;;;;;;;5.35;3.05;;;;;;;18.77;38.98;99641.84;7710109;32;37661;-83
2023/04/20 18:17:33;;;;;;;5.07;2.58;;;;;;;18.53;40.06;99656.22;7710347;32;37107;-82
2023/04/20 18:21:50;;;;;;;4.37;2.72;;;;;;;18.46;40.45;99650.41;7712905;32;38035;-84
2023/04/20 18:26:09;;;;;;;6.18;2.67;;;;;;;18.56;39.88;99655.56;7718566;32;40105;-83
2023/04/20 18:30:25;;;;;;;3.83;2.40;;;;;;;18.41;40.29;99664.38;7722324;32;37887;-83
2023/04/20 18:34:41;;;;;;;5.80;3.58;;;;;;;18.21;40.25;99671.34;7719812;32;36749;-83
2023/04/20 18:38:57;;;;;;;7.60;2.97;;;;;;;18.12;40.44;99681.59;7730851;32;39831;-83
2023/04/20 18:43:14;;;;;;;4.87;2.50;;;;;;;18.17;40.53;99689.72;7745307;32;40804;-83
2023/04/20 18:47:30;;;;;;;7.82;2.78;;;;;;;18.13;40.48;99686.00;7730763;32;38625;-82
2023/04/20 18:51:46;;;;;;;5.87;2.42;;;;;;;18.00;41.46;99691.31;7718132;32;37085;-81
2023/04/20 18:56:03;;;;;;;7.75;2.72;;;;;;;17.92;42.16;99694.91;7721530;32;39301;-80
2023/04/20 19:00:19;;;;;;;8.23;3.03;;;;;;;17.93;41.36;99702.03;7725063;32;39574;-89
2023/04/20 19:04:35;;;;;;;3.78;2.25;;;;;;;17.87;41.58;99703.34;7731933;32;37932;-87
2023/04/20 19:08:52;;;;;;;4.95;2.58;;;;;;;17.74;41.07;99713.31;7726512;32;37103;-85
2023/04/20 19:13:08;;;;;;;6.30;2.95;;;;;;;17.74;41.15;99707.00;7704159;32;39281;-80
2023/04/20 19:17:24;;;;;;;8.48;2.90;;;;;;;17.67;40.83;99713.00;7735416;32;40128;-83
2023/04/20 19:21:40;;;;;;;4.55;3.15;;;;;;;17.63;41.26;99718.34;7727856;32;37935;-81
2023/04/20 19:25:57;;;;;;;10.52;3.85;;;;;;;17.54;41.50;99714.75;7717381;32;37306;-81
2023/04/20 19:30:13;;;;;;;7.72;3.92;;;;;;;17.45;42.00;99719.41;7703554;32;38999;-83
2023/04/20 19:34:30;;;;;;;7.12;4.25;;;;;;;17.49;41.93;99722.34;7702654;32;40936;-83
2023/04/20 19:38:46;;;;;;;12.77;4.93;;;;;;;17.32;42.72;99720.38;7736611;32;38601;-81
2023/04/20 19:43:02;;;;;;;10.10;4.07;;;;;;;17.21;42.34;99719.81;7737108;32;37205;-84
2023/04/20 19:47:19;;;;;;;5.55;3.20;;;;;;;17.21;41.81;99728.06;7717804;32;39442;-79
2023/04/20 19:51:35;;;;;;;8.15;3.58;;;;;;;17.23;42.28;99729.41;7722832;32;40848;-82
2023/04/20 19:55:52;;;;;;;11.82;3.10;;;;;;;17.19;41.88;99731.16;7727840;32;37840;-81
2023/04/20 20:00:08;;;;;;;5.37;2.75;;;;;;;17.15;41.94;99730.16;7729633;32;37092;-81